Time;durP1;ratioP1;P1;durP2;ratioP2;P2;SDS_P1;SDS_P2;PMS_P1;PMS_P2;Temp;Humidity;BMP_temperature;BMP_pressure;BME280_temperature;BME280_humidity;BME280_pressure;Samples;Min_cycle;Max_cycle;Signal;HPM_P1;HPM_P2
2021/06/28 00:01:16;;;;;;;12.17;9.50;;;18.80;99.90;;;;;;5094049;28;20501;-60
2021/06/28 00:03:44;;;;;;;12.43;9.80;;;18.80;99.90;;;;;;5081969;28;20441;-60
2021/06/28 00:06:13;;;;;;;13.50;10.47;;;18.70;99.90;;;;;;5087628;28;20516;-60
2021/06/28 00:08:42;;;;;;;9.73;8.73;;;18.60;99.90;;;;;;5097702;28;20479;-60
2021/06/28 00:11:10;;;;;;;11.33;10.20;;;18.60;99.90;;;;;;5081492;28;20449;-59
2021/06/28 00:13:39;;;;;;;10.87;9.80;;;18.60;99.90;;;;;;5097185;28;20419;-60
2021/06/28 00:16:06;;;;;;;12.73;11.40;;;18.60;99.90;;;;;;5096915;28;20416;-59
2021/06/28 00:18:34;;;;;;;11.70;10.60;;;18.60;99.90;;;;;;5081512;28;20454;-60
2021/06/28 00:21:03;;;;;;;11.97;10.43;;;18.60;99.90;;;;;;5087354;28;20793;-60
2021/06/28 00:23:30;;;;;;;10.57;9.40;;;18.50;99.90;;;;;;5077142;28;20482;-59
2021/06/28 00:25:57;;;;;;;11.00;9.90;;;18.60;99.90;;;;;;5086526;28;20746;-60
2021/06/28 00:28:24;;;;;;;9.63;8.83;;;18.60;99.90;;;;;;5098298;28;20888;-60
2021/06/28 00:30:52;;;;;;;11.20;10.20;;;18.40;99.90;;;;;;5081363;28;20422;-61
2021/06/28 00:33:19;;;;;;;12.13;10.90;;;18.80;99.90;;;;;;5098854;28;20416;-59
2021/06/28 00:35:47;;;;;;;11.13;10.10;;;18.20;99.90;;;;;;5086708;28;20411;-60
2021/06/28 00:38:16;;;;;;;11.33;10.13;;;18.20;99.90;;;;;;5100780;28;20449;-60
2021/06/28 00:40:44;;;;;;;12.83;11.60;;;18.20;99.90;;;;;;5097653;28;20524;-60
2021/06/28 00:43:12;;;;;;;12.07;10.97;;;18.10;99.90;;;;;;5091026;28;20610;-60
2021/06/28 00:45:40;;;;;;;11.60;10.63;;;17.80;99.90;;;;;;5097098;28;20420;-60
2021/06/28 00:48:10;;;;;;;13.60;12.23;;;17.60;99.90;;;;;;5100219;28;20508;-60
2021/06/28 00:50:47;;;;;;;13.07;11.43;;;17.80;99.90;;;;;;5098982;28;20423;-60
2021/06/28 00:53:16;;;;;;;12.13;11.03;;;18.00;99.90;;;;;;5100167;28;20441;-61
2021/06/28 00:55:47;;;;;;;12.73;11.53;;;17.90;99.90;;;;;;5086570;28;20940;-61
2021/06/28 00:58:15;;;;;;;14.23;13.00;;;18.00;99.90;;;;;;5097697;28;20772;-60
2021/06/28 01:00:42;;;;;;;13.67;12.40;;;17.90;99.90;;;;;;5100385;28;20469;-60
2021/06/28 01:03:09;;;;;;;11.90;10.60;;;18.00;99.90;;;;;;5099124;28;20416;-59
2021/06/28 01:05:39;;;;;;;14.50;11.70;;;18.10;99.90;;;;;;5100350;28;20420;-59
2021/06/28 01:08:08;;;;;;;15.77;11.77;;;18.10;99.90;;;;;;5099891;28;20441;-60
2021/06/28 01:10:37;;;;;;;11.63;10.53;;;18.10;99.90;;;;;;5098999;28;20563;-59
2021/06/28 01:13:06;;;;;;;23.23;12.90;;;18.10;99.90;;;;;;5089845;28;20787;-59
2021/06/28 01:15:33;;;;;;;13.43;11.40;;;18.10;99.90;;;;;;5085812;28;20661;-59
2021/06/28 01:18:02;;;;;;;16.60;12.97;;;18.10;99.90;;;;;;5096458;28;20437;-60
2021/06/28 01:20:30;;;;;;;13.03;11.83;;;18.10;99.90;;;;;;5099890;28;20441;-60
2021/06/28 01:23:24;;;;;;;13.30;12.00;;;18.10;99.90;;;;;;5097515;28;20443;-60
2021/06/28 01:26:00;;;;;;;11.40;10.30;;;18.00;99.90;;;;;;5102411;28;20412;-62
2021/06/28 01:28:28;;;;;;;12.43;11.23;;;18.00;99.90;;;;;;5086308;28;20441;-60
2021/06/28 01:30:55;;;;;;;12.10;11.00;;;18.00;99.90;;;;;;5098481;28;20624;-60
2021/06/28 01:33:23;;;;;;;13.23;11.80;;;17.90;99.90;;;;;;5088387;28;20424;-60
2021/06/28 01:35:50;;;;;;;13.60;12.40;;;17.80;99.90;;;;;;5091169;28;20412;-60
2021/06/28 01:38:17;;;;;;;13.60;12.30;;;18.50;99.90;;;;;;5092243;28;20449;-60
2021/06/28 01:40:45;;;;;;;14.90;13.37;;;17.80;99.90;;;;;;5097413;28;20796;-60
2021/06/28 01:43:12;;;;;;;13.97;12.40;;;17.80;99.90;;;;;;5099847;28;20557;-60
2021/06/28 01:45:41;;;;;;;15.37;13.77;;;17.80;99.90;;;;;;5097128;28;20443;-60
2021/06/28 01:48:08;;;;;;;12.93;11.73;;;17.80;99.90;;;;;;5099903;28;20505;-60
2021/06/28 01:50:38;;;;;;;15.17;13.43;;;17.80;99.90;;;;;;5098696;28;20467;-60
2021/06/28 01:53:06;;;;;;;13.93;12.53;;;17.80;99.90;;;;;;5097992;28;20431;-59
2021/06/28 01:55:34;;;;;;;13.30;12.00;;;17.80;99.90;;;;;;5095662;28;20448;-60
2021/06/28 01:58:06;;;;;;;13.40;12.00;;;17.80;99.90;;;;;;5097785;28;20442;-60
2021/06/28 02:00:39;;;;;;;16.53;14.13;;;17.80;99.90;;;;;;5098584;28;20458;-60
2021/06/28 02:03:18;;;;;;;13.70;11.87;;;17.80;99.90;;;;;;5092667;28;20416;-60
2021/06/28 02:05:51;;;;;;;13.33;12.13;;;17.80;99.90;;;;;;5084352;28;20448;-60
2021/06/28 02:08:21;;;;;;;16.07;13.50;;;17.80;99.90;;;;;;5081876;28;20493;-61
2021/06/28 02:10:54;;;;;;;14.07;12.80;;;17.80;99.90;;;;;;5088765;28;20427;-59
2021/06/28 02:13:24;;;;;;;14.43;12.93;;;17.90;99.90;;;;;;5098766;28;20612;-60
2021/06/28 02:15:53;;;;;;;14.47;13.17;;;17.90;99.90;;;;;;5093546;28;20446;-60
2021/06/28 02:18:25;;;;;;;15.63;13.17;;;17.90;99.90;;;;;;5092880;28;20738;-60
2021/06/28 02:20:53;;;;;;;15.90;14.37;;;17.80;99.90;;;;;;5091559;28;20450;-59
2021/06/28 02:23:20;;;;;;;13.20;11.90;;;17.80;99.90;;;;;;5098875;28;20858;-59
2021/06/28 02:25:49;;;;;;;15.63;13.87;;;17.80;99.90;;;;;;5082909;28;20462;-60
2021/06/28 02:28:17;;;;;;;13.73;12.40;;;17.70;99.90;;;;;;5085763;28;20429;-60
2021/06/28 02:30:44;;;;;;;13.67;12.23;;;17.70;99.90;;;;;;5093198;28;20494;-60
2021/06/28 02:33:11;;;;;;;16.00;14.47;;;17.70;99.90;;;;;;5093459;28;20465;-60
2021/06/28 02:35:39;;;;;;;13.77;12.47;;;17.70;99.90;;;;;;5090538;28;20464;-60
2021/06/28 02:38:07;;;;;;;14.40;12.97;;;17.70;99.90;;;;;;5097678;28;20427;-60
2021/06/28 02:40:34;;;;;;;15.00;13.50;;;17.60;99.90;;;;;;5097376;28;20415;-60
2021/06/28 02:43:01;;;;;;;15.60;14.00;;;17.30;99.90;;;;;;5096791;28;20424;-60
2021/06/28 02:45:28;;;;;;;15.50;14.07;;;17.10;99.90;;;;;;5098133;28;20473;-61
2021/06/28 02:47:55;;;;;;;17.30;15.50;;;16.80;99.90;;;;;;5086882;28;20433;-59
2021/06/28 02:50:22;;;;;;;16.47;14.97;;;16.90;99.90;;;;;;5088571;28;20454;-59
2021/06/28 02:52:49;;;;;;;14.30;12.83;;;17.10;99.90;;;;;;5097675;28;20433;-59
2021/06/28 02:55:16;;;;;;;15.50;13.90;;;17.10;99.90;;;;;;5090525;28;20458;-59
2021/06/28 02:57:43;;;;;;;15.50;13.97;;;17.20;99.90;;;;;;5084254;28;20427;-60
2021/06/28 03:00:14;;;;;;;14.63;13.20;;;17.10;99.90;;;;;;5091231;28;20424;-60
2021/06/28 03:02:42;;;;;;;15.10;13.80;;;17.30;99.90;;;;;;5091436;28;20427;-61
2021/06/28 03:05:11;;;;;;;15.17;13.67;;;17.40;99.90;;;;;;5090853;28;20449;-59
2021/06/28 03:07:39;;;;;;;17.23;15.43;;;17.70;99.90;;;;;;5096830;28;20420;-59
2021/06/28 03:10:09;;;;;;;14.97;13.40;;;17.80;99.90;;;;;;5090144;28;20520;-61
2021/06/28 03:12:36;;;;;;;16.17;14.47;;;17.90;99.90;;;;;;5092252;28;20448;-61
2021/06/28 03:15:12;;;;;;;16.83;13.87;;;18.00;99.90;;;;;;5089499;28;20408;-60
2021/06/28 03:17:40;;;;;;;14.17;12.70;;;18.00;99.90;;;;;;5096384;28;20435;-60
2021/06/28 03:20:10;;;;;;;14.90;13.40;;;18.00;99.90;;;;;;5097111;28;20438;-59
2021/06/28 03:22:39;;;;;;;13.27;12.00;;;17.90;99.90;;;;;;5089620;28;20444;-59
2021/06/28 03:25:12;;;;;;;15.43;13.83;;;17.90;99.90;;;;;;5092585;28;20417;-60
2021/06/28 03:27:40;;;;;;;13.33;12.00;;;17.80;99.90;;;;;;5091506;28;20477;-59
2021/06/28 03:30:10;;;;;;;15.63;12.73;;;17.90;99.90;;;;;;5090671;28;20477;-60
2021/06/28 03:32:37;;;;;;;14.70;13.17;;;17.80;99.90;;;;;;5096338;28;20445;-60
2021/06/28 03:35:05;;;;;;;14.90;13.40;;;17.90;99.90;;;;;;5094817;28;20442;-59
2021/06/28 03:37:32;;;;;;;15.33;13.80;;;18.00;99.90;;;;;;5097226;28;20448;-60
2021/06/28 03:40:05;;;;;;;14.17;12.87;;;18.00;99.90;;;;;;5095445;28;20417;-59
2021/06/28 03:42:35;;;;;;;17.80;13.87;;;18.10;99.90;;;;;;5096844;28;20629;-60
2021/06/28 03:45:06;;;;;;;13.37;12.07;;;18.30;99.90;;;;;;5089027;28;20459;-59
2021/06/28 03:47:34;;;;;;;16.67;14.00;;;18.30;99.90;;;;;;5097638;28;20454;-60
2021/06/28 03:50:01;;;;;;;12.83;11.73;;;18.40;99.90;;;;;;5089994;28;20464;-61
2021/06/28 03:52:28;;;;;;;15.33;13.63;;;18.50;99.90;;;;;;5094375;28;20420;-60
2021/06/28 03:54:55;;;;;;;15.10;13.63;;;18.70;99.90;;;;;;5094715;28;20423;-61
2021/06/28 03:57:22;;;;;;;14.70;13.20;;;18.90;99.90;;;;;;5092839;28;20751;-60
2021/06/28 03:59:49;;;;;;;14.63;13.00;;;19.10;99.90;;;;;;5093746;28;20610;-59
2021/06/28 04:02:16;;;;;;;15.10;13.70;;;19.10;99.90;;;;;;5094555;28;20452;-60
2021/06/28 04:04:48;;;;;;;16.80;15.10;;;19.10;99.90;;;;;;5101455;28;20483;-60
2021/06/28 04:07:16;;;;;;;15.93;14.20;;;19.10;99.90;;;;;;5096466;28;20467;-59
2021/06/28 04:09:43;;;;;;;18.93;14.63;;;19.00;99.90;;;;;;5095623;28;20454;-60
2021/06/28 04:12:11;;;;;;;14.67;13.17;;;19.10;99.90;;;;;;5091020;28;20627;-59
2021/06/28 04:14:38;;;;;;;14.53;13.13;;;19.20;99.90;;;;;;5098208;28;20731;-60
2021/06/28 04:17:05;;;;;;;16.37;14.67;;;19.20;99.90;;;;;;5095857;28;20421;-60
2021/06/28 04:19:33;;;;;;;15.47;13.90;;;19.20;99.90;;;;;;5086575;28;20481;-61
2021/06/28 04:22:00;;;;;;;15.53;14.07;;;19.10;99.90;;;;;;5092998;28;20803;-60
2021/06/28 04:24:27;;;;;;;15.73;14.13;;;19.10;99.90;;;;;;5091885;28;20515;-59
2021/06/28 04:26:54;;;;;;;14.33;13.07;;;18.90;99.90;;;;;;5086486;28;20424;-59
2021/06/28 04:29:21;;;;;;;13.90;12.60;;;18.70;99.90;;;;;;5086115;28;20494;-59
2021/06/28 04:31:50;;;;;;;13.57;12.17;;;18.60;99.90;;;;;;5094309;28;20413;-59
2021/06/28 04:34:17;;;;;;;14.43;13.03;;;18.80;99.90;;;;;;5098379;28;20736;-59
2021/06/28 04:36:44;;;;;;;12.53;11.33;;;18.90;99.90;;;;;;5100252;28;20420;-59
2021/06/28 04:39:11;;;;;;;14.83;13.23;;;19.00;99.90;;;;;;5100788;28;20794;-59
2021/06/28 04:41:39;;;;;;;13.67;12.37;;;19.30;99.90;;;;;;5099150;28;20782;-59
2021/06/28 04:44:07;;;;;;;13.43;12.27;;;19.50;99.90;;;;;;5100818;28;20449;-59
2021/06/28 04:46:33;;;;;;;14.40;13.00;;;19.70;99.90;;;;;;5097396;28;20469;-58
2021/06/28 04:49:01;;;;;;;14.90;13.50;;;19.90;99.90;;;;;;5100508;28;20994;-60
2021/06/28 04:51:28;;;;;;;13.37;12.13;;;19.90;99.90;;;;;;5100126;28;20497;-60
2021/06/28 04:53:55;;;;;;;14.93;13.40;;;20.00;99.90;;;;;;5100654;28;20466;-60
2021/06/28 04:56:22;;;;;;;13.93;12.60;;;20.20;99.90;;;;;;5100713;28;20446;-60
2021/06/28 04:58:49;;;;;;;15.43;12.67;;;20.30;99.90;;;;;;5100065;28;20478;-59
2021/06/28 05:01:16;;;;;;;15.10;13.70;;;20.50;99.90;;;;;;5099786;28;20474;-59
2021/06/28 05:03:44;;;;;;;13.70;12.43;;;21.00;99.90;;;;;;5097411;28;20453;-60
2021/06/28 05:06:11;;;;;;;15.80;13.30;;;21.10;99.90;;;;;;5088773;28;20661;-59
2021/06/28 05:08:38;;;;;;;15.50;13.60;;;21.40;99.90;;;;;;5092262;28;20417;-60
2021/06/28 05:11:05;;;;;;;17.77;13.43;;;21.70;99.90;;;;;;5097972;28;20498;-58
2021/06/28 05:13:32;;;;;;;16.93;14.17;;;22.10;99.90;;;;;;5098158;28;20518;-59
2021/06/28 05:15:59;;;;;;;16.37;13.83;;;22.20;99.90;;;;;;5097463;28;20953;-59
2021/06/28 05:18:27;;;;;;;14.20;12.93;;;22.30;99.90;;;;;;5095033;28;20440;-60
2021/06/28 05:20:54;;;;;;;15.60;14.00;;;22.50;99.90;;;;;;5098879;28;20830;-59
2021/06/28 05:23:21;;;;;;;17.93;12.80;;;22.70;99.90;;;;;;5097020;28;20473;-58
2021/06/28 05:25:49;;;;;;;15.20;13.97;;;22.80;99.90;;;;;;5097770;28;20464;-60
2021/06/28 05:28:16;;;;;;;13.13;11.93;;;22.80;99.90;;;;;;5096550;28;20751;-58
2021/06/28 05:30:43;;;;;;;14.30;13.03;;;23.00;99.90;;;;;;5092229;28;20545;-59
2021/06/28 05:33:10;;;;;;;13.17;12.10;;;23.00;99.90;;;;;;5093505;28;20445;-59
2021/06/28 05:35:37;;;;;;;17.17;15.53;;;23.20;99.90;;;;;;5097119;28;20474;-59
2021/06/28 05:38:05;;;;;;;13.33;12.23;;;23.80;99.90;;;;;;5096341;28;20681;-60
2021/06/28 05:40:32;;;;;;;13.67;12.27;;;24.30;99.90;;;;;;5088955;28;20559;-59
2021/06/28 05:42:59;;;;;;;18.33;14.93;;;24.40;99.90;;;;;;5093283;28;20431;-59
2021/06/28 05:45:26;;;;;;;15.87;14.27;;;24.70;99.90;;;;;;5095028;28;20485;-60
2021/06/28 05:47:53;;;;;;;15.80;14.40;;;24.50;99.90;;;;;;5093654;28;20447;-59
2021/06/28 05:50:22;;;;;;;15.13;13.83;;;24.10;99.90;;;;;;5090151;28;20589;-59
2021/06/28 05:52:49;;;;;;;15.87;13.90;;;23.90;99.90;;;;;;5088563;28;20425;-59
2021/06/28 05:55:16;;;;;;;21.60;13.70;;;24.10;99.90;;;;;;5095306;28;20650;-59
2021/06/28 05:57:44;;;;;;;16.20;14.80;;;24.50;99.90;;;;;;5099265;28;20446;-61
2021/06/28 06:00:13;;;;;;;13.93;12.63;;;24.60;99.90;;;;;;5098288;28;20451;-58
2021/06/28 06:02:40;;;;;;;14.57;13.27;;;24.70;99.90;;;;;;5095057;28;20444;-59
2021/06/28 06:05:08;;;;;;;16.33;14.90;;;24.80;99.90;;;;;;5098259;28;20821;-60
2021/06/28 06:07:36;;;;;;;14.43;13.33;;;24.90;99.90;;;;;;5096014;28;20507;-58
2021/06/28 06:10:09;;;;;;;12.63;11.63;;;24.80;99.60;;;;;;5096935;28;20481;-59
2021/06/28 06:12:36;;;;;;;15.50;14.07;;;24.90;99.60;;;;;;5097088;28;20443;-58
2021/06/28 06:15:08;;;;;;;13.90;12.70;;;24.80;99.90;;;;;;5096732;28;20450;-59
2021/06/28 06:17:36;;;;;;;13.93;12.63;;;24.60;99.90;;;;;;5090197;28;20440;-60
2021/06/28 06:20:07;;;;;;;14.37;13.07;;;24.70;99.90;;;;;;5094422;28;20440;-59
2021/06/28 06:22:35;;;;;;;13.27;12.27;;;25.00;99.30;;;;;;5095146;28;20687;-59
2021/06/28 06:25:03;;;;;;;14.63;13.53;;;25.70;99.00;;;;;;5089067;28;20510;-59
2021/06/28 06:27:30;;;;;;;15.17;13.67;;;26.00;97.60;;;;;;5089700;28;20490;-58
2021/06/28 06:29:58;;;;;;;13.63;12.67;;;26.20;97.50;;;;;;5093341;28;20616;-59
2021/06/28 06:32:24;;;;;;;13.67;12.57;;;26.90;96.70;;;;;;5085520;28;20758;-59
2021/06/28 06:34:52;;;;;;;14.53;13.43;;;27.10;95.10;;;;;;5093510;28;20481;-58
2021/06/28 06:37:19;;;;;;;14.90;13.80;;;27.30;95.10;;;;;;5093475;28;20443;-60
2021/06/28 06:39:46;;;;;;;14.80;13.60;;;27.20;94.70;;;;;;5092070;28;20469;-59
2021/06/28 06:42:16;;;;;;;14.57;13.23;;;27.10;94.50;;;;;;5095302;28;20789;-60
2021/06/28 06:44:44;;;;;;;13.57;12.40;;;26.70;94.70;;;;;;5085801;28;20770;-58
2021/06/28 06:47:11;;;;;;;14.10;13.00;;;26.60;95.60;;;;;;5091726;28;20429;-59
2021/06/28 06:49:38;;;;;;;12.60;11.70;;;26.70;95.20;;;;;;5095190;28;20761;-58
2021/06/28 06:52:05;;;;;;;14.13;12.50;;;26.70;95.40;;;;;;5094270;28;20435;-59
2021/06/28 06:54:33;;;;;;;13.60;12.60;;;27.20;95.40;;;;;;5094285;28;20486;-59
2021/06/28 06:57:01;;;;;;;14.30;13.30;;;27.50;95.00;;;;;;5090211;28;20446;-58
2021/06/28 06:59:28;;;;;;;14.60;13.20;;;28.10;94.30;;;;;;5090123;28;20444;-59
2021/06/28 07:01:55;;;;;;;13.33;12.27;;;28.50;92.80;;;;;;5094094;28;20448;-59
2021/06/28 07:04:22;;;;;;;13.63;12.47;;;28.80;92.90;;;;;;5095527;28;20443;-58
2021/06/28 07:06:49;;;;;;;14.70;13.40;;;28.90;92.30;;;;;;5096089;28;20481;-58
2021/06/28 07:09:16;;;;;;;14.37;13.37;;;30.10;91.10;;;;;;5094961;28;20447;-58
2021/06/28 07:11:43;;;;;;;13.70;12.70;;;30.80;90.20;;;;;;5091655;28;20466;-59
2021/06/28 07:14:12;;;;;;;14.53;13.20;;;31.60;87.50;;;;;;5095893;28;20443;-58
2021/06/28 07:16:39;;;;;;;13.50;12.50;;;33.40;84.00;;;;;;5094365;28;20494;-58
2021/06/28 07:19:06;;;;;;;12.67;11.87;;;35.30;77.30;;;;;;5093238;28;20484;-58
2021/06/28 07:21:35;;;;;;;12.93;12.03;;;36.70;67.70;;;;;;5094235;28;20897;-58
2021/06/28 07:24:04;;;;;;;13.83;12.53;;;35.90;65.30;;;;;;5095248;28;20475;-59
2021/06/28 07:26:32;;;;;;;13.47;12.53;;;35.90;64.60;;;;;;5093045;28;20891;-58
2021/06/28 07:28:59;;;;;;;12.33;11.47;;;35.80;64.00;;;;;;5095722;28;20439;-58
2021/06/28 07:31:27;;;;;;;12.30;11.40;;;34.60;64.90;;;;;;5092867;28;20487;-58
2021/06/28 07:33:55;;;;;;;12.80;12.00;;;33.60;67.40;;;;;;5095562;28;20716;-59
2021/06/28 07:36:22;;;;;;;11.20;10.60;;;33.70;66.20;;;;;;5096375;28;20451;-58
2021/06/28 07:38:49;;;;;;;13.20;12.40;;;34.20;65.30;;;;;;5083460;28;20621;-58
2021/06/28 07:41:16;;;;;;;12.80;11.70;;;34.30;64.40;;;;;;5092857;28;20799;-58
2021/06/28 07:43:43;;;;;;;11.40;10.70;;;34.30;63.00;;;;;;5098885;28;20527;-59
2021/06/28 07:46:11;;;;;;;11.77;11.17;;;34.20;63.90;;;;;;5099815;28;20480;-58
2021/06/28 07:48:38;;;;;;;12.30;11.60;;;34.10;64.40;;;;;;5097766;28;20444;-59
2021/06/28 07:51:05;;;;;;;13.07;12.27;;;33.60;63.90;;;;;;5099382;28;20482;-59
2021/06/28 07:53:32;;;;;;;12.90;12.20;;;33.50;64.30;;;;;;5098705;28;20478;-58
2021/06/28 07:56:14;;;;;;;12.90;12.20;;;33.40;63.70;;;;;;5098925;28;20728;-59
2021/06/28 07:58:42;;;;;;;12.77;12.07;;;33.10;63.40;;;;;;5098717;28;20453;-58
2021/06/28 08:01:11;;;;;;;12.37;11.67;;;33.40;63.40;;;;;;5093813;28;20429;-57
2021/06/28 08:03:45;;;;;;;12.37;11.67;;;32.30;64.20;;;;;;5092155;28;20450;-58
2021/06/28 08:06:18;;;;;;;11.70;11.10;;;31.90;65.10;;;;;;5099053;28;20522;-58
2021/06/28 08:08:50;;;;;;;12.13;11.53;;;32.10;66.80;;;;;;5097589;28;20434;-58
2021/06/28 08:11:20;;;;;;;12.97;11.83;;;32.20;65.40;;;;;;5096383;28;20481;-58
2021/06/28 08:13:49;;;;;;;12.33;11.43;;;33.60;62.50;;;;;;5085927;28;20855;-58
2021/06/28 08:16:20;;;;;;;13.40;12.23;;;34.50;60.00;;;;;;5094537;28;20439;-58
2021/06/28 08:18:53;;;;;;;12.13;11.33;;;34.90;58.90;;;;;;5099665;28;20471;-57
2021/06/28 08:21:38;;;;;;;11.00;10.40;;;35.50;57.00;;;;;;5096266;28;20469;-58
2021/06/28 08:24:09;;;;;;;12.50;11.80;;;35.70;55.90;;;;;;5089289;28;20524;-58
2021/06/28 08:26:38;;;;;;;12.17;11.57;;;35.90;55.20;;;;;;5097278;28;20636;-58
2021/06/28 08:29:07;;;;;;;12.60;11.90;;;36.30;53.20;;;;;;5088590;28;20769;-58
2021/06/28 08:31:37;;;;;;;13.30;12.60;;;36.50;53.70;;;;;;5087614;28;20483;-59
2021/06/28 08:34:13;;;;;;;12.10;11.50;;;37.10;52.40;;;;;;5097300;28;20483;-58
2021/06/28 08:36:45;;;;;;;12.10;11.50;;;38.10;51.20;;;;;;5087344;28;20447;-60
2021/06/28 08:39:17;;;;;;;11.30;10.80;;;38.50;48.90;;;;;;5082602;28;20448;-59
2021/06/28 08:41:52;;;;;;;12.30;11.70;;;38.30;48.20;;;;;;5094314;28;20542;-57
2021/06/28 08:44:20;;;;;;;12.73;11.83;;;38.40;48.90;;;;;;5092451;28;20545;-57
2021/06/28 08:46:49;;;;;;;10.87;10.37;;;38.20;48.60;;;;;;5092797;28;20765;-58
2021/06/28 08:49:17;;;;;;;13.97;13.07;;;36.80;48.40;;;;;;5094247;28;20447;-58
2021/06/28 08:51:45;;;;;;;12.47;11.67;;;36.70;49.20;;;;;;5090797;28;20479;-58
2021/06/28 08:54:14;;;;;;;11.07;10.57;;;38.80;47.20;;;;;;5094121;28;20471;-57
2021/06/28 08:56:44;;;;;;;12.53;11.73;;;40.30;46.20;;;;;;5090535;28;20443;-58
2021/06/28 08:59:19;;;;;;;12.30;11.37;;;41.60;43.40;;;;;;5094180;28;20765;-58
2021/06/28 09:01:47;;;;;;;12.10;11.50;;;42.10;42.80;;;;;;5098286;28;20522;-58
2021/06/28 09:04:16;;;;;;;13.40;12.43;;;42.50;39.70;;;;;;5095686;28;20645;-58
2021/06/28 09:06:44;;;;;;;13.00;12.23;;;41.20;41.20;;;;;;5087932;28;20537;-58
2021/06/28 09:09:13;;;;;;;12.87;12.20;;;40.90;41.50;;;;;;5094874;28;20443;-58
2021/06/28 09:11:47;;;;;;;11.27;10.77;;;41.20;40.70;;;;;;5095137;28;20482;-58
2021/06/28 09:14:15;;;;;;;12.63;12.03;;;41.40;41.60;;;;;;5096265;28;20439;-58
2021/06/28 09:16:45;;;;;;;11.73;11.13;;;41.60;41.60;;;;;;5096273;28;20443;-58
2021/06/28 09:19:16;;;;;;;12.17;11.67;;;41.60;40.40;;;;;;5095582;28;20690;-58
2021/06/28 09:21:53;;;;;;;12.47;11.87;;;40.30;41.00;;;;;;5096254;28;20482;-58
2021/06/28 09:24:39;;;;;;;10.60;10.20;;;38.80;41.60;;;;;;5095193;28;20463;-57
2021/06/28 09:27:12;;;;;;;14.90;13.83;;;37.90;40.60;;;;;;5094935;28;20427;-61
2021/06/28 09:29:52;;;;;;;11.40;10.90;;;36.90;43.00;;;;;;5094325;28;20435;-58
2021/06/28 09:32:21;;;;;;;10.27;9.73;;;36.30;44.20;;;;;;5094569;28;20479;-58
2021/06/28 09:34:51;;;;;;;10.57;9.97;;;36.70;43.10;;;;;;5095618;28;20499;-57
2021/06/28 09:37:23;;;;;;;11.67;11.07;;;37.00;43.40;;;;;;5097584;28;20435;-58
2021/06/28 09:39:59;;;;;;;10.90;10.47;;;36.70;44.00;;;;;;5095585;28;20485;-58
2021/06/28 09:42:29;;;;;;;12.03;11.53;;;36.70;45.20;;;;;;5094104;28;20442;-57
2021/06/28 09:45:08;;;;;;;11.10;10.60;;;37.10;44.60;;;;;;5096870;28;20431;-57
2021/06/28 09:47:35;;;;;;;11.97;11.33;;;36.60;44.00;;;;;;5093750;28;20451;-58
2021/06/28 09:50:07;;;;;;;12.10;11.60;;;36.00;43.90;;;;;;5098317;28;20443;-57
2021/06/28 09:52:43;;;;;;;11.53;11.03;;;35.20;44.90;;;;;;5089886;28;20479;-58
2021/06/28 09:55:18;;;;;;;11.70;11.20;;;34.30;46.60;;;;;;5094952;28;20492;-57
2021/06/28 09:58:10;;;;;;;11.80;11.20;;;33.40;47.10;;;;;;5089667;28;20446;-57
2021/06/28 10:00:43;;;;;;;10.90;10.30;;;33.60;48.20;;;;;;5092021;28;20668;-57
2021/06/28 10:03:38;;;;;;;10.87;10.27;;;33.70;46.10;;;;;;5093071;28;20435;-58
2021/06/28 10:06:26;;;;;;;10.73;10.23;;;33.70;46.10;;;;;;5095533;28;20454;-58
2021/06/28 10:09:05;;;;;;;11.00;10.50;;;33.70;46.60;;;;;;5092580;28;20424;-57
2021/06/28 10:11:33;;;;;;;11.00;10.60;;;34.30;47.10;;;;;;5091412;28;20838;-58
2021/06/28 10:14:06;;;;;;;9.63;9.23;;;34.60;47.50;;;;;;5094226;28;20463;-58
2021/06/28 10:16:36;;;;;;;9.37;8.97;;;35.00;45.10;;;;;;5094534;28;20765;-57
2021/06/28 10:19:06;;;;;;;10.10;9.60;;;34.90;45.30;;;;;;5096795;28;20788;-58
2021/06/28 10:21:35;;;;;;;9.80;9.30;;;34.30;44.20;;;;;;5083635;28;20463;-58
2021/06/28 10:24:02;;;;;;;10.80;10.20;;;34.00;44.30;;;;;;5094281;28;20481;-58
2021/06/28 10:26:29;;;;;;;9.30;8.90;;;34.00;45.70;;;;;;5081240;28;20742;-58
2021/06/28 10:28:57;;;;;;;9.30;8.90;;;33.60;43.20;;;;;;5077042;28;20453;-57
2021/06/28 10:31:24;;;;;;;10.03;9.57;;;33.20;45.20;;;;;;5088723;28;20490;-58
2021/06/28 10:33:55;;;;;;;9.90;9.50;;;32.80;46.20;;;;;;5096074;28;20484;-58
2021/06/28 10:36:31;;;;;;;9.80;9.30;;;32.90;47.50;;;;;;5096424;28;20474;-57
2021/06/28 10:38:59;;;;;;;9.00;8.60;;;32.90;46.30;;;;;;5085509;28;20578;-58
2021/06/28 10:41:52;;;;;;;10.10;9.50;;;32.90;46.80;;;;;;5095958;28;20496;-56
2021/06/28 10:44:21;;;;;;;9.07;8.63;;;32.80;46.20;;;;;;5095808;28;20716;-56
2021/06/28 10:46:54;;;;;;;9.00;8.60;;;32.80;44.30;;;;;;5093033;28;20441;-56
2021/06/28 10:49:43;;;;;;;9.40;8.90;;;32.80;46.10;;;;;;5077640;28;20663;-58
2021/06/28 10:52:10;;;;;;;10.10;9.50;;;32.80;46.40;;;;;;5092684;28;20488;-57
2021/06/28 10:54:37;;;;;;;9.90;9.50;;;32.60;45.90;;;;;;5088073;28;20449;-57
2021/06/28 10:57:05;;;;;;;10.37;9.87;;;32.40;46.80;;;;;;5083078;28;20491;-59
2021/06/28 10:59:43;;;;;;;10.00;9.50;;;32.00;47.60;;;;;;5093969;28;20531;-58
2021/06/28 11:02:12;;;;;;;8.63;8.23;;;32.20;47.30;;;;;;5096178;28;20435;-59
2021/06/28 11:04:42;;;;;;;9.60;9.10;;;31.70;48.80;;;;;;5088672;28;20450;-58
2021/06/28 11:07:17;;;;;;;10.33;9.60;;;31.20;47.20;;;;;;5082270;28;20435;-58
2021/06/28 11:09:49;;;;;;;10.03;9.53;;;30.90;48.60;;;;;;5084695;28;20485;-57
2021/06/28 11:12:22;;;;;;;9.90;9.40;;;30.70;50.30;;;;;;5084853;28;20527;-58
2021/06/28 11:15:18;;;;;;;9.53;9.03;;;30.60;51.20;;;;;;5089817;28;20439;-57
2021/06/28 11:17:50;;;;;;;9.83;9.37;;;30.30;50.40;;;;;;5076619;28;20517;-59
2021/06/28 11:20:35;;;;;;;11.33;10.53;;;30.30;51.50;;;;;;5077947;28;20440;-57
2021/06/28 11:23:05;;;;;;;10.80;9.90;;;30.60;51.00;;;;;;5090596;28;20801;-57
2021/06/28 11:25:39;;;;;;;11.77;10.67;;;30.90;52.10;;;;;;5083419;28;20436;-57
2021/06/28 11:28:16;;;;;;;10.10;9.50;;;30.90;52.80;;;;;;5084527;28;20443;-57
2021/06/28 11:30:56;;;;;;;9.83;9.23;;;30.70;54.70;;;;;;5078499;28;20876;-58
2021/06/28 11:33:40;;;;;;;10.10;9.50;;;30.40;56.70;;;;;;5092069;28;20447;-58
2021/06/28 11:36:22;;;;;;;12.43;11.73;;;30.00;54.70;;;;;;5092416;28;20975;-57
2021/06/28 11:38:51;;;;;;;9.70;9.20;;;29.90;55.80;;;;;;5094897;28;20423;-59
2021/06/28 11:41:25;;;;;;;10.10;9.60;;;30.00;56.30;;;;;;5093497;28;20633;-59
2021/06/28 11:43:59;;;;;;;10.47;9.77;;;29.90;57.20;;;;;;5088219;28;20497;-58
2021/06/28 11:46:33;;;;;;;10.70;9.67;;;30.10;55.70;;;;;;5085090;28;20716;-57
2021/06/28 11:49:12;;;;;;;11.60;10.87;;;30.00;54.80;;;;;;5091263;28;20489;-58
2021/06/28 11:51:41;;;;;;;10.17;9.57;;;29.70;55.90;;;;;;5091941;28;20479;-57
2021/06/28 11:54:20;;;;;;;10.53;9.83;;;29.40;55.60;;;;;;5087226;28;20443;-57
2021/06/28 11:56:59;;;;;;;10.60;9.83;;;29.10;56.20;;;;;;5085118;28;20440;-56
2021/06/28 11:59:31;;;;;;;10.93;10.43;;;29.20;56.20;;;;;;5085511;28;20477;-59
2021/06/28 12:02:04;;;;;;;10.37;9.80;;;28.90;56.20;;;;;;5093696;28;20782;-58
2021/06/28 12:04:34;;;;;;;12.10;11.20;;;28.70;56.30;;;;;;5082622;28;20443;-58
2021/06/28 12:07:04;;;;;;;10.37;9.77;;;28.80;57.20;;;;;;5082942;28;20442;-58
2021/06/28 12:09:35;;;;;;;9.63;9.10;;;28.80;55.90;;;;;;5092975;28;20450;-57
2021/06/28 12:12:12;;;;;;;9.77;9.27;;;28.80;55.30;;;;;;5096010;28;20665;-57
2021/06/28 12:14:48;;;;;;;10.57;9.97;;;28.90;55.30;;;;;;5089562;28;20443;-58
2021/06/28 12:17:29;;;;;;;10.73;10.07;;;29.00;55.20;;;;;;5093188;28;20439;-58
2021/06/28 12:20:07;;;;;;;9.67;9.17;;;29.30;55.80;;;;;;5086139;28;20443;-57
2021/06/28 12:22:38;;;;;;;9.57;9.07;;;29.50;56.10;;;;;;5090750;28;20485;-58
2021/06/28 12:25:09;;;;;;;10.50;10.00;;;29.60;54.30;;;;;;5095560;28;20442;-56
2021/06/28 12:27:38;;;;;;;10.27;9.77;;;29.50;55.20;;;;;;5099215;28;20446;-57
2021/06/28 12:30:08;;;;;;;8.87;8.27;;;29.60;54.60;;;;;;5096668;28;20434;-58
2021/06/28 12:32:49;;;;;;;10.70;10.10;;;29.40;53.80;;;;;;5095974;28;20490;-58
2021/06/28 12:35:23;;;;;;;9.70;9.10;;;29.50;53.70;;;;;;5096855;28;20435;-59
2021/06/28 12:37:53;;;;;;;9.33;8.83;;;29.40;54.40;;;;;;5098346;28;20442;-57
2021/06/28 12:40:21;;;;;;;10.20;9.70;;;29.40;56.20;;;;;;5097048;28;20518;-57
2021/06/28 12:43:00;;;;;;;10.10;9.40;;;29.50;55.40;;;;;;5098753;28;20785;-57
2021/06/28 12:45:32;;;;;;;10.50;10.00;;;29.40;55.10;;;;;;5096791;28;20438;-57